sensor_id;sensor_type;location;lat;lon;timestamp;pressure;altitude;pressure_sealevel;temperature;humidity
64889;BME280;51386;53.082;8.816;2024-01-10T00:00:04;103454.28;;;0.89;60.37
64889;BME280;51386;53.082;8.816;2024-01-10T00:02:32;103456.09;;;0.87;60.50
64889;BME280;51386;53.082;8.816;2024-01-10T00:05:01;103449.19;;;0.86;60.77
64889;BME280;51386;53.082;8.816;2024-01-10T00:07:29;103452.69;;;0.85;60.42
64889;BME280;51386;53.082;8.816;2024-01-10T00:09:58;103443.28;;;0.81;60.52
64889;BME280;51386;53.082;8.816;2024-01-10T00:12:28;103449.31;;;0.82;60.77
64889;BME280;51386;53.082;8.816;2024-01-10T00:15:04;103445.00;;;0.82;60.69
64889;BME280;51386;53.082;8.816;2024-01-10T00:17:33;103440.66;;;0.83;60.53
64889;BME280;51386;53.082;8.816;2024-01-10T00:20:01;103439.81;;;0.82;60.71
64889;BME280;51386;53.082;8.816;2024-01-10T00:22:30;103442.34;;;0.84;60.77
64889;BME280;51386;53.082;8.816;2024-01-10T00:24:58;103427.66;;;0.84;60.34
64889;BME280;51386;53.082;8.816;2024-01-10T00:27:27;103425.97;;;0.83;60.50
64889;BME280;51386;53.082;8.816;2024-01-10T00:29:55;103417.28;;;0.84;60.14
64889;BME280;51386;53.082;8.816;2024-01-10T00:32:24;103414.75;;;0.83;60.29
64889;BME280;51386;53.082;8.816;2024-01-10T00:34:53;103412.19;;;0.81;60.34
64889;BME280;51386;53.082;8.816;2024-01-10T00:37:22;103407.91;;;0.80;60.46
64889;BME280;51386;53.082;8.816;2024-01-10T00:39:50;103398.44;;;0.79;60.47
64889;BME280;51386;53.082;8.816;2024-01-10T00:42:19;103407.13;;;0.78;60.58
64889;BME280;51386;53.082;8.816;2024-01-10T00:44:47;103404.47;;;0.80;60.41
64889;BME280;51386;53.082;8.816;2024-01-10T00:47:15;103401.81;;;0.81;60.89
64889;BME280;51386;53.082;8.816;2024-01-10T00:49:44;103392.97;;;0.88;60.77
64889;BME280;51386;53.082;8.816;2024-01-10T00:52:12;103397.06;;;0.95;60.51
64889;BME280;51386;53.082;8.816;2024-01-10T00:54:41;103389.19;;;0.98;60.39
64889;BME280;51386;53.082;8.816;2024-01-10T00:57:09;103389.13;;;1.01;60.03
64889;BME280;51386;53.082;8.816;2024-01-10T00:59:38;103386.53;;;1.01;59.90
64889;BME280;51386;53.082;8.816;2024-01-10T01:02:06;103383.94;;;1.01;59.94
64889;BME280;51386;53.082;8.816;2024-01-10T01:04:35;103384.72;;;1.03;60.22
64889;BME280;51386;53.082;8.816;2024-01-10T01:07:03;103380.34;;;1.05;59.79
64889;BME280;51386;53.082;8.816;2024-01-10T01:09:33;103382.13;;;1.03;59.78
64889;BME280;51386;53.082;8.816;2024-01-10T01:12:02;103383.84;;;1.04;59.97
64889;BME280;51386;53.082;8.816;2024-01-10T01:14:30;103376.88;;;1.06;59.88
64889;BME280;51386;53.082;8.816;2024-01-10T01:16:59;103382.84;;;1.08;59.50
64889;BME280;51386;53.082;8.816;2024-01-10T01:19:27;103389.84;;;1.05;59.25
64889;BME280;51386;53.082;8.816;2024-01-10T01:21:55;103392.59;;;1.00;59.26
64889;BME280;51386;53.082;8.816;2024-01-10T01:24:24;103391.09;;;0.93;59.45
64889;BME280;51386;53.082;8.816;2024-01-10T01:26:52;103391.28;;;0.87;59.60
64889;BME280;51386;53.082;8.816;2024-01-10T01:29:21;103400.06;;;0.83;59.70
64889;BME280;51386;53.082;8.816;2024-01-10T01:31:50;103401.81;;;0.81;59.81
64889;BME280;51386;53.082;8.816;2024-01-10T01:34:18;103400.94;;;0.82;60.04
64889;BME280;51386;53.082;8.816;2024-01-10T01:36:47;103396.63;;;0.81;60.02
64889;BME280;51386;53.082;8.816;2024-01-10T01:39:16;103395.81;;;0.81;60.15
64889;BME280;51386;53.082;8.816;2024-01-10T01:41:44;103401.00;;;0.81;60.33
64889;BME280;51386;53.082;8.816;2024-01-10T01:44:12;103394.06;;;0.81;60.25
64889;BME280;51386;53.082;8.816;2024-01-10T01:46:41;103398.25;;;0.85;60.39
64889;BME280;51386;53.082;8.816;2024-01-10T01:49:10;103396.47;;;0.87;60.08
64889;BME280;51386;53.082;8.816;2024-01-10T01:51:40;103399.94;;;0.86;59.71
64889;BME280;51386;53.082;8.816;2024-01-10T01:54:09;103404.34;;;0.84;59.98
64889;BME280;51386;53.082;8.816;2024-01-10T01:56:39;103400.94;;;0.82;60.09
64889;BME280;51386;53.082;8.816;2024-01-10T01:59:08;103409.56;;;0.83;60.14
64889;BME280;51386;53.082;8.816;2024-01-10T02:01:36;103402.66;;;0.83;60.02
64889;BME280;51386;53.082;8.816;2024-01-10T02:04:05;103402.66;;;0.83;59.93
64889;BME280;51386;53.082;8.816;2024-01-10T02:06:34;103398.34;;;0.82;60.17
64889;BME280;51386;53.082;8.816;2024-01-10T02:09:03;103398.34;;;0.82;60.09
64889;BME280;51386;53.082;8.816;2024-01-10T02:11:31;103399.28;;;0.80;59.83
64889;BME280;51386;53.082;8.816;2024-01-10T02:14:00;103395.03;;;0.77;59.97
64889;BME280;51386;53.082;8.816;2024-01-10T02:16:28;103389.94;;;0.74;59.91
64889;BME280;51386;53.082;8.816;2024-01-10T02:18:57;103395.25;;;0.71;59.94
64889;BME280;51386;53.082;8.816;2024-01-10T02:21:25;103390.88;;;0.72;60.21
64889;BME280;51386;53.082;8.816;2024-01-10T02:23:54;103386.47;;;0.75;60.51
64889;BME280;51386;53.082;8.816;2024-01-10T02:26:22;103387.28;;;0.77;60.05
64889;BME280;51386;53.082;8.816;2024-01-10T02:28:50;103388.19;;;0.76;59.95
64889;BME280;51386;53.082;8.816;2024-01-10T02:31:19;103388.19;;;0.76;59.78
64889;BME280;51386;53.082;8.816;2024-01-10T02:33:47;103384.75;;;0.76;59.67
64889;BME280;51386;53.082;8.816;2024-01-10T02:36:15;103383.09;;;0.73;60.03
64889;BME280;51386;53.082;8.816;2024-01-10T02:38:44;103383.09;;;0.73;59.77
64889;BME280;51386;53.082;8.816;2024-01-10T02:41:12;103382.31;;;0.69;59.56
64889;BME280;51386;53.082;8.816;2024-01-10T02:43:41;103379.88;;;0.65;59.67
64889;BME280;51386;53.082;8.816;2024-01-10T02:46:09;103378.25;;;0.61;60.11
64889;BME280;51386;53.082;8.816;2024-01-10T02:48:38;103374.88;;;0.59;60.10
64889;BME280;51386;53.082;8.816;2024-01-10T02:51:06;103376.59;;;0.58;60.02
64889;BME280;51386;53.082;8.816;2024-01-10T02:53:34;103378.44;;;0.55;60.33
64889;BME280;51386;53.082;8.816;2024-01-10T02:56:03;103379.25;;;0.57;60.23
64889;BME280;51386;53.082;8.816;2024-01-10T02:58:32;103382.72;;;0.56;60.12
64889;BME280;51386;53.082;8.816;2024-01-10T03:01:00;103368.06;;;0.55;60.31
64889;BME280;51386;53.082;8.816;2024-01-10T03:03:29;103372.44;;;0.54;60.18
64889;BME280;51386;53.082;8.816;2024-01-10T03:05:57;103378.53;;;0.52;60.39
64889;BME280;51386;53.082;8.816;2024-01-10T03:08:26;103367.47;;;0.47;60.15
64889;BME280;51386;53.082;8.816;2024-01-10T03:10:54;103373.53;;;0.46;60.65
64889;BME280;51386;53.082;8.816;2024-01-10T03:13:23;103366.56;;;0.48;60.56
64889;BME280;51386;53.082;8.816;2024-01-10T03:15:51;103370.78;;;0.50;60.62
64889;BME280;51386;53.082;8.816;2024-01-10T03:18:19;103364.69;;;0.53;60.50
64889;BME280;51386;53.082;8.816;2024-01-10T03:20:48;103360.41;;;0.52;60.44
64889;BME280;51386;53.082;8.816;2024-01-10T03:23:16;103365.59;;;0.52;60.59
64889;BME280;51386;53.082;8.816;2024-01-10T03:25:45;103363.00;;;0.52;60.27
64889;BME280;51386;53.082;8.816;2024-01-10T03:28:17;103361.28;;;0.51;60.26
64889;BME280;51386;53.082;8.816;2024-01-10T03:30:45;103354.44;;;0.50;60.43
64889;BME280;51386;53.082;8.816;2024-01-10T03:33:14;103356.97;;;0.51;60.62
64889;BME280;51386;53.082;8.816;2024-01-10T03:35:43;103356.03;;;0.54;60.67
64889;BME280;51386;53.082;8.816;2024-01-10T03:38:12;103345.66;;;0.54;60.22
64889;BME280;51386;53.082;8.816;2024-01-10T03:40:40;103349.13;;;0.53;60.24
64889;BME280;51386;53.082;8.816;2024-01-10T03:43:09;103337.09;;;0.52;60.33
64889;BME280;51386;53.082;8.816;2024-01-10T03:45:38;103343.16;;;0.51;59.96
64889;BME280;51386;53.082;8.816;2024-01-10T03:48:07;103345.81;;;0.48;60.30
64889;BME280;51386;53.082;8.816;2024-01-10T03:50:35;103333.88;;;0.44;59.99
64889;BME280;51386;53.082;8.816;2024-01-10T03:53:04;103344.31;;;0.41;60.10
64889;BME280;51386;53.082;8.816;2024-01-10T03:55:32;103349.59;;;0.38;59.94
64889;BME280;51386;53.082;8.816;2024-01-10T03:58:01;103353.06;;;0.37;60.63
64889;BME280;51386;53.082;8.816;2024-01-10T04:00:29;103355.59;;;0.38;60.69
64889;BME280;51386;53.082;8.816;2024-01-10T04:02:58;103366.81;;;0.39;60.49
64889;BME280;51386;53.082;8.816;2024-01-10T04:05:27;103365.16;;;0.38;60.78
64889;BME280;51386;53.082;8.816;2024-01-10T04:07:55;103347.03;;;0.36;60.62
64889;BME280;51386;53.082;8.816;2024-01-10T04:10:25;103352.22;;;0.36;60.60
64889;BME280;51386;53.082;8.816;2024-01-10T04:12:53;103345.38;;;0.35;60.49
64889;BME280;51386;53.082;8.816;2024-01-10T04:15:21;103338.41;;;0.37;60.63
64889;BME280;51386;53.082;8.816;2024-01-10T04:17:50;103344.44;;;0.38;60.50
64889;BME280;51386;53.082;8.816;2024-01-10T04:20:19;103342.72;;;0.37;60.55
64889;BME280;51386;53.082;8.816;2024-01-10T04:22:47;103346.09;;;0.39;60.58
64889;BME280;51386;53.082;8.816;2024-01-10T04:25:16;103342.63;;;0.40;60.43
64889;BME280;51386;53.082;8.816;2024-01-10T04:27:44;103339.13;;;0.41;60.61
64889;BME280;51386;53.082;8.816;2024-01-10T04:30:13;103338.19;;;0.45;60.70
64889;BME280;51386;53.082;8.816;2024-01-10T04:32:41;103343.34;;;0.45;60.57
64889;BME280;51386;53.082;8.816;2024-01-10T04:35:10;103344.16;;;0.47;60.54
64889;BME280;51386;53.082;8.816;2024-01-10T04:37:38;103345.94;;;0.45;60.13
64889;BME280;51386;53.082;8.816;2024-01-10T04:40:07;103341.66;;;0.44;60.53
64889;BME280;51386;53.082;8.816;2024-01-10T04:42:36;103339.13;;;0.41;60.43
64889;BME280;51386;53.082;8.816;2024-01-10T04:45:05;103337.34;;;0.43;60.41
64889;BME280;51386;53.082;8.816;2024-01-10T04:47:35;103342.44;;;0.46;60.49
64889;BME280;51386;53.082;8.816;2024-01-10T04:50:04;103332.94;;;0.46;60.33
64889;BME280;51386;53.082;8.816;2024-01-10T04:52:38;103335.59;;;0.45;59.99
64889;BME280;51386;53.082;8.816;2024-01-10T04:55:07;103337.34;;;0.43;59.93
64889;BME280;51386;53.082;8.816;2024-01-10T04:57:36;103334.00;;;0.39;59.87
64889;BME280;51386;53.082;8.816;2024-01-10T05:00:05;103328.97;;;0.35;60.08
64889;BME280;51386;53.082;8.816;2024-01-10T05:02:34;103329.06;;;0.32;59.84
64889;BME280;51386;53.082;8.816;2024-01-10T05:05:03;103327.44;;;0.28;59.99
64889;BME280;51386;53.082;8.816;2024-01-10T05:07:32;103332.72;;;0.25;59.96
64889;BME280;51386;53.082;8.816;2024-01-10T05:10:00;103323.38;;;0.19;59.83
64889;BME280;51386;53.082;8.816;2024-01-10T05:12:29;103321.75;;;0.17;60.14
64889;BME280;51386;53.082;8.816;2024-01-10T05:14:57;103325.28;;;0.13;59.99
64889;BME280;51386;53.082;8.816;2024-01-10T05:17:25;103319.41;;;0.08;60.04
64889;BME280;51386;53.082;8.816;2024-01-10T05:19:54;103319.50;;;0.05;60.22
64889;BME280;51386;53.082;8.816;2024-01-10T05:22:22;103320.47;;;0.00;60.40
64889;BME280;51386;53.082;8.816;2024-01-10T05:24:51;103323.97;;;-0.01;60.43
64889;BME280;51386;53.082;8.816;2024-01-10T05:27:19;103319.66;;;-0.02;60.31
64889;BME280;51386;53.082;8.816;2024-01-10T05:29:47;103324.13;;;-0.07;60.50
64889;BME280;51386;53.082;8.816;2024-01-10T05:32:16;103318.13;;;-0.09;60.41
64889;BME280;51386;53.082;8.816;2024-01-10T05:34:45;103318.22;;;-0.12;60.39
64889;BME280;51386;53.082;8.816;2024-01-10T05:37:13;103318.31;;;-0.15;60.74
64889;BME280;51386;53.082;8.816;2024-01-10T05:39:42;103319.19;;;-0.16;60.60
64889;BME280;51386;53.082;8.816;2024-01-10T05:42:10;103320.06;;;-0.17;60.61
64889;BME280;51386;53.082;8.816;2024-01-10T05:44:39;103321.03;;;-0.19;60.56
64889;BME280;51386;53.082;8.816;2024-01-10T05:47:08;103321.03;;;-0.19;60.94
64889;BME280;51386;53.082;8.816;2024-01-10T05:49:36;103320.97;;;-0.18;61.38
64889;BME280;51386;53.082;8.816;2024-01-10T05:52:05;103321.78;;;-0.16;61.01
64889;BME280;51386;53.082;8.816;2024-01-10T05:54:33;103325.09;;;-0.11;61.05
64889;BME280;51386;53.082;8.816;2024-01-10T05:57:02;103319.84;;;-0.08;60.83
64889;BME280;51386;53.082;8.816;2024-01-10T05:59:30;103323.25;;;-0.07;60.90
64889;BME280;51386;53.082;8.816;2024-01-10T06:01:59;103320.59;;;-0.04;60.85
64889;BME280;51386;53.082;8.816;2024-01-10T06:04:27;103313.75;;;-0.05;60.74
64889;BME280;51386;53.082;8.816;2024-01-10T06:06:58;103308.44;;;-0.02;60.72
64889;BME280;51386;53.082;8.816;2024-01-10T06:09:27;103305.72;;;0.03;60.62
64889;BME280;51386;53.082;8.816;2024-01-10T06:11:55;103302.19;;;0.07;60.85
64889;BME280;51386;53.082;8.816;2024-01-10T06:14:24;103301.28;;;0.08;60.33
64889;BME280;51386;53.082;8.816;2024-01-10T06:16:52;103295.22;;;0.09;60.16
64889;BME280;51386;53.082;8.816;2024-01-10T06:19:22;103298.75;;;0.06;59.94
64889;BME280;51386;53.082;8.816;2024-01-10T06:21:51;103299.72;;;0.02;60.02
64889;BME280;51386;53.082;8.816;2024-01-10T06:24:20;103306.78;;;-0.05;60.01
64889;BME280;51386;53.082;8.816;2024-01-10T06:26:48;103300.94;;;-0.10;59.79
64889;BME280;51386;53.082;8.816;2024-01-10T06:29:18;103309.63;;;-0.12;60.08
64889;BME280;51386;53.082;8.816;2024-01-10T06:31:47;103310.56;;;-0.15;59.84
64889;BME280;51386;53.082;8.816;2024-01-10T06:34:15;103312.28;;;-0.15;60.23
64889;BME280;51386;53.082;8.816;2024-01-10T06:36:44;103309.66;;;-0.14;60.41
64889;BME280;51386;53.082;8.816;2024-01-10T06:39:12;103303.59;;;-0.13;60.22
64889;BME280;51386;53.082;8.816;2024-01-10T06:41:41;103308.72;;;-0.11;60.35
64889;BME280;51386;53.082;8.816;2024-01-10T06:44:10;103300.06;;;-0.10;60.38
64889;BME280;51386;53.082;8.816;2024-01-10T06:46:39;103301.63;;;-0.05;60.39
64889;BME280;51386;53.082;8.816;2024-01-10T06:49:07;103304.13;;;-0.02;60.44
64889;BME280;51386;53.082;8.816;2024-01-10T06:51:36;103307.63;;;-0.03;60.05
64889;BME280;51386;53.082;8.816;2024-01-10T06:54:05;103317.16;;;-0.05;59.86
64889;BME280;51386;53.082;8.816;2024-01-10T06:56:34;103312.97;;;-0.09;60.06
64889;BME280;51386;53.082;8.816;2024-01-10T06:59:03;103313.88;;;-0.10;59.92
64889;BME280;51386;53.082;8.816;2024-01-10T07:01:31;103314.75;;;-0.11;59.97
64889;BME280;51386;53.082;8.816;2024-01-10T07:04:00;103320.78;;;-0.12;60.05
64889;BME280;51386;53.082;8.816;2024-01-10T07:06:28;103315.63;;;-0.12;60.07
64889;BME280;51386;53.082;8.816;2024-01-10T07:08:58;103310.50;;;-0.13;59.96
64889;BME280;51386;53.082;8.816;2024-01-10T07:11:32;103316.69;;;-0.19;59.29
64889;BME280;51386;53.082;8.816;2024-01-10T07:14:00;103312.44;;;-0.21;60.09
64889;BME280;51386;53.082;8.816;2024-01-10T07:16:29;103321.91;;;-0.20;60.22
64889;BME280;51386;53.082;8.816;2024-01-10T07:18:59;103316.69;;;-0.19;60.02
64889;BME280;51386;53.082;8.816;2024-01-10T07:21:28;103319.25;;;-0.17;60.28
64889;BME280;51386;53.082;8.816;2024-01-10T07:23:56;103321.84;;;-0.19;60.04
64889;BME280;51386;53.082;8.816;2024-01-10T07:26:25;103328.75;;;-0.18;59.96
64889;BME280;51386;53.082;8.816;2024-01-10T07:28:56;103324.44;;;-0.17;59.99
64889;BME280;51386;53.082;8.816;2024-01-10T07:31:43;103328.75;;;-0.18;59.85
64889;BME280;51386;53.082;8.816;2024-01-10T07:34:12;103330.41;;;-0.15;59.75
64889;BME280;51386;53.082;8.816;2024-01-10T07:36:43;103331.34;;;-0.18;59.72
64889;BME280;51386;53.082;8.816;2024-01-10T07:39:12;103335.66;;;-0.18;59.72
64889;BME280;51386;53.082;8.816;2024-01-10T07:41:44;103337.34;;;-0.17;60.02
64889;BME280;51386;53.082;8.816;2024-01-10T07:44:12;103345.06;;;-0.16;59.76
64889;BME280;51386;53.082;8.816;2024-01-10T07:46:41;103339.91;;;-0.16;59.99
64889;BME280;51386;53.082;8.816;2024-01-10T07:49:09;103345.00;;;-0.14;59.72
64889;BME280;51386;53.082;8.816;2024-01-10T07:51:38;103345.00;;;-0.13;59.96
64889;BME280;51386;53.082;8.816;2024-01-10T07:54:07;103345.78;;;-0.11;60.14
64889;BME280;51386;53.082;8.816;2024-01-10T07:56:36;103337.06;;;-0.07;59.72
64889;BME280;51386;53.082;8.816;2024-01-10T07:59:08;103345.75;;;-0.09;59.71
64889;BME280;51386;53.082;8.816;2024-01-10T08:01:39;103344.88;;;-0.08;60.00
64889;BME280;51386;53.082;8.816;2024-01-10T08:04:16;103337.06;;;-0.07;59.64
64889;BME280;51386;53.082;8.816;2024-01-10T08:06:44;103345.63;;;-0.05;59.79
64889;BME280;51386;53.082;8.816;2024-01-10T08:09:14;103350.72;;;-0.02;59.36
64889;BME280;51386;53.082;8.816;2024-01-10T08:11:43;103347.16;;;0.03;59.90
64889;BME280;51386;53.082;8.816;2024-01-10T08:14:11;103347.00;;;0.09;59.61
64889;BME280;51386;53.082;8.816;2024-01-10T08:16:40;103350.31;;;0.12;59.69
64889;BME280;51386;53.082;8.816;2024-01-10T08:19:11;103346.13;;;0.08;59.09
64889;BME280;51386;53.082;8.816;2024-01-10T08:21:40;103341.81;;;0.09;59.09
64889;BME280;51386;53.082;8.816;2024-01-10T08:24:08;103349.56;;;0.09;59.11
64889;BME280;51386;53.082;8.816;2024-01-10T08:26:37;103342.66;;;0.09;59.17
64889;BME280;51386;53.082;8.816;2024-01-10T08:29:06;103340.88;;;0.11;58.71
64889;BME280;51386;53.082;8.816;2024-01-10T08:31:34;103345.19;;;0.11;58.63
64889;BME280;51386;53.082;8.816;2024-01-10T08:34:11;103338.31;;;0.10;58.58
64889;BME280;51386;53.082;8.816;2024-01-10T08:37:01;103338.25;;;0.13;58.99
64889;BME280;51386;53.082;8.816;2024-01-10T08:39:45;103339.16;;;0.12;58.97
64889;BME280;51386;53.082;8.816;2024-01-10T08:42:42;103348.66;;;0.10;58.61
64889;BME280;51386;53.082;8.816;2024-01-10T08:45:24;103336.72;;;0.06;58.52
64889;BME280;51386;53.082;8.816;2024-01-10T08:47:53;103341.16;;;0.02;58.36
64889;BME280;51386;53.082;8.816;2024-01-10T08:50:22;103348.00;;;0.03;58.72
64889;BME280;51386;53.082;8.816;2024-01-10T08:52:51;103338.38;;;0.08;58.67
64889;BME280;51386;53.082;8.816;2024-01-10T08:55:19;103340.03;;;0.11;58.28
64889;BME280;51386;53.082;8.816;2024-01-10T08:57:52;103330.66;;;0.07;57.97
64889;BME280;51386;53.082;8.816;2024-01-10T09:00:23;103329.09;;;0.01;57.59
64889;BME280;51386;53.082;8.816;2024-01-10T09:02:52;103331.81;;;-0.04;57.87
64889;BME280;51386;53.082;8.816;2024-01-10T09:05:24;103340.41;;;-0.03;58.35
64889;BME280;51386;53.082;8.816;2024-01-10T09:07:57;103342.06;;;-0.01;58.29
64889;BME280;51386;53.082;8.816;2024-01-10T09:10:34;103342.81;;;0.05;58.31
64889;BME280;51386;53.082;8.816;2024-01-10T09:13:08;103342.69;;;0.08;57.69
64889;BME280;51386;53.082;8.816;2024-01-10T09:15:41;103335.72;;;0.10;57.67
64889;BME280;51386;53.082;8.816;2024-01-10T09:18:11;103333.97;;;0.12;57.89
64889;BME280;51386;53.082;8.816;2024-01-10T09:20:48;103328.88;;;0.09;57.23
64889;BME280;51386;53.082;8.816;2024-01-10T09:23:32;103325.47;;;0.07;57.33
64889;BME280;51386;53.082;8.816;2024-01-10T09:26:02;103331.53;;;0.06;57.20
64889;BME280;51386;53.082;8.816;2024-01-10T09:28:31;103333.31;;;0.04;57.05
64889;BME280;51386;53.082;8.816;2024-01-10T09:30:59;103323.75;;;0.07;57.47
64889;BME280;51386;53.082;8.816;2024-01-10T09:33:29;103320.97;;;0.13;57.20
64889;BME280;51386;53.082;8.816;2024-01-10T09:36:07;103322.50;;;0.20;57.15
64889;BME280;51386;53.082;8.816;2024-01-10T09:38:40;103326.78;;;0.21;56.42
64889;BME280;51386;53.082;8.816;2024-01-10T09:41:11;103330.13;;;0.25;56.53
64889;BME280;51386;53.082;8.816;2024-01-10T09:43:56;103333.44;;;0.30;56.31
64889;BME280;51386;53.082;8.816;2024-01-10T09:46:46;103329.91;;;0.32;56.22
64889;BME280;51386;53.082;8.816;2024-01-10T09:49:18;103334.16;;;0.35;56.10
64889;BME280;51386;53.082;8.816;2024-01-10T09:55:22;103321.44;;;0.55;56.18
64889;BME280;51386;53.082;8.816;2024-01-10T09:58:07;103318.53;;;0.65;55.62
64889;BME280;51386;53.082;8.816;2024-01-10T10:00:42;103318.34;;;0.72;55.70
64889;BME280;51386;53.082;8.816;2024-01-10T10:03:11;103324.06;;;0.81;55.29
64889;BME280;51386;53.082;8.816;2024-01-10T10:05:40;103318.72;;;0.87;54.84
64889;BME280;51386;53.082;8.816;2024-01-10T10:08:15;103315.03;;;0.94;54.91
64889;BME280;51386;53.082;8.816;2024-01-10T10:10:50;103313.69;;;1.09;54.57
64889;BME280;51386;53.082;8.816;2024-01-10T10:13:29;103310.28;;;1.58;54.54
64889;BME280;51386;53.082;8.816;2024-01-10T10:16:02;103320.63;;;2.30;53.75
64889;BME280;51386;53.082;8.816;2024-01-10T10:18:31;103322.34;;;2.96;52.72
64889;BME280;51386;53.082;8.816;2024-01-10T10:21:18;103324.47;;;3.89;51.31
64889;BME280;51386;53.082;8.816;2024-01-10T10:24:02;103321.06;;;4.63;49.34
64889;BME280;51386;53.082;8.816;2024-01-10T10:26:34;103312.19;;;5.37;47.25
64889;BME280;51386;53.082;8.816;2024-01-10T10:29:03;103307.59;;;5.92;46.13
64889;BME280;51386;53.082;8.816;2024-01-10T10:31:32;103306.34;;;5.99;44.79
64889;BME280;51386;53.082;8.816;2024-01-10T10:34:01;103302.53;;;5.72;43.80
64889;BME280;51386;53.082;8.816;2024-01-10T10:36:30;103300.28;;;5.31;43.13
64889;BME280;51386;53.082;8.816;2024-01-10T10:39:00;103293.81;;;4.87;43.17
64889;BME280;51386;53.082;8.816;2024-01-10T10:41:31;103291.78;;;4.39;43.66
64889;BME280;51386;53.082;8.816;2024-01-10T10:44:03;103297.13;;;3.99;43.76
64889;BME280;51386;53.082;8.816;2024-01-10T10:46:34;103297.75;;;3.65;44.70
64889;BME280;51386;53.082;8.816;2024-01-10T10:49:11;103298.03;;;3.39;45.25
64889;BME280;51386;53.082;8.816;2024-01-10T10:51:41;103289.28;;;3.20;45.38
64889;BME280;51386;53.082;8.816;2024-01-10T10:54:11;103283.16;;;3.01;45.93
64889;BME280;51386;53.082;8.816;2024-01-10T10:56:44;103292.50;;;2.85;46.37
64889;BME280;51386;53.082;8.816;2024-01-10T10:59:15;103282.69;;;2.69;46.41
64889;BME280;51386;53.082;8.816;2024-01-10T11:01:45;103283.25;;;2.56;46.43
64889;BME280;51386;53.082;8.816;2024-01-10T11:04:15;103278.47;;;2.45;46.79
64889;BME280;51386;53.082;8.816;2024-01-10T11:06:43;103277.06;;;2.37;46.84
64889;BME280;51386;53.082;8.816;2024-01-10T11:09:18;103279.19;;;2.27;47.11
64889;BME280;51386;53.082;8.816;2024-01-10T11:12:32;103285.72;;;2.14;47.31
64889;BME280;51386;53.082;8.816;2024-01-10T11:19:35;103268.47;;;1.90;48.15
64889;BME280;51386;53.082;8.816;2024-01-10T11:25:27;103263.38;;;1.87;48.58
64889;BME280;51386;53.082;8.816;2024-01-10T11:27:57;103258.97;;;1.89;48.50
64889;BME280;51386;53.082;8.816;2024-01-10T11:30:48;103261.81;;;1.83;48.11
64889;BME280;51386;53.082;8.816;2024-01-10T11:36:19;103264.44;;;1.81;48.49
64889;BME280;51386;53.082;8.816;2024-01-10T11:38:50;103264.28;;;1.86;48.03
64889;BME280;51386;53.082;8.816;2024-01-10T11:41:29;103265.06;;;1.88;48.42
64889;BME280;51386;53.082;8.816;2024-01-10T11:46:42;103260.25;;;2.89;48.92
64889;BME280;51386;53.082;8.816;2024-01-10T11:49:17;103260.16;;;4.81;45.89
64889;BME280;51386;53.082;8.816;2024-01-10T11:51:53;103250.91;;;6.70;42.35
64889;BME280;51386;53.082;8.816;2024-01-10T11:54:44;103241.00;;;8.05;38.45
64889;BME280;51386;53.082;8.816;2024-01-10T11:59:45;103242.97;;;9.46;35.78
64889;BME280;51386;53.082;8.816;2024-01-10T12:02:14;103240.19;;;10.35;33.75
64889;BME280;51386;53.082;8.816;2024-01-10T12:04:43;103238.75;;;11.35;32.73
64889;BME280;51386;53.082;8.816;2024-01-10T12:07:17;103243.09;;;12.13;31.89
64889;BME280;51386;53.082;8.816;2024-01-10T12:09:47;103242.34;;;12.65;30.60
64889;BME280;51386;53.082;8.816;2024-01-10T12:12:16;103232.44;;;12.47;31.18
64889;BME280;51386;53.082;8.816;2024-01-10T12:14:44;103229.94;;;11.80;31.49
64889;BME280;51386;53.082;8.816;2024-01-10T12:17:14;103229.38;;;11.20;31.90
64889;BME280;51386;53.082;8.816;2024-01-10T12:19:44;103232.28;;;11.17;32.47
64889;BME280;51386;53.082;8.816;2024-01-10T12:22:16;103236.03;;;11.47;31.73
64889;BME280;51386;53.082;8.816;2024-01-10T12:24:48;103222.53;;;11.74;30.99
64889;BME280;51386;53.082;8.816;2024-01-10T12:27:19;103231.75;;;11.80;31.07
64889;BME280;51386;53.082;8.816;2024-01-10T12:29:51;103230.63;;;11.49;30.26
64889;BME280;51386;53.082;8.816;2024-01-10T12:32:21;103227.34;;;10.77;30.66
64889;BME280;51386;53.082;8.816;2024-01-10T12:35:04;103221.41;;;9.79;31.28
64889;BME280;51386;53.082;8.816;2024-01-10T12:37:33;103225.06;;;9.01;32.02
64889;BME280;51386;53.082;8.816;2024-01-10T12:40:01;103217.91;;;8.25;32.57
64889;BME280;51386;53.082;8.816;2024-01-10T12:42:37;103220.03;;;7.49;33.43
64889;BME280;51386;53.082;8.816;2024-01-10T12:45:05;103208.31;;;6.82;33.89
64889;BME280;51386;53.082;8.816;2024-01-10T12:47:48;103211.84;;;6.22;35.24
64889;BME280;51386;53.082;8.816;2024-01-10T12:50:17;103208.94;;;5.80;36.17
64889;BME280;51386;53.082;8.816;2024-01-10T12:52:45;103207.16;;;5.47;36.78
64889;BME280;51386;53.082;8.816;2024-01-10T12:55:15;103206.78;;;5.22;37.15
64889;BME280;51386;53.082;8.816;2024-01-10T12:57:44;103199.25;;;4.99;37.38
64889;BME280;51386;53.082;8.816;2024-01-10T13:00:13;103205.53;;;4.78;37.75
64889;BME280;51386;53.082;8.816;2024-01-10T13:02:42;103215.03;;;4.62;38.12
64889;BME280;51386;53.082;8.816;2024-01-10T13:05:11;103206.00;;;4.69;38.50
64889;BME280;51386;53.082;8.816;2024-01-10T13:07:39;103210.94;;;4.75;37.93
64889;BME280;51386;53.082;8.816;2024-01-10T13:10:08;103205.31;;;4.65;38.00
64889;BME280;51386;53.082;8.816;2024-01-10T13:12:37;103207.75;;;4.51;38.62
64889;BME280;51386;53.082;8.816;2024-01-10T13:15:06;103207.63;;;4.36;39.38
64889;BME280;51386;53.082;8.816;2024-01-10T13:17:37;103206.38;;;4.26;39.20
64889;BME280;51386;53.082;8.816;2024-01-10T13:20:16;103202.75;;;4.11;39.27
64889;BME280;51386;53.082;8.816;2024-01-10T13:22:45;103199.25;;;3.93;39.52
64889;BME280;51386;53.082;8.816;2024-01-10T13:25:14;103206.84;;;3.79;39.53
64889;BME280;51386;53.082;8.816;2024-01-10T13:27:43;103202.31;;;3.64;40.25
64889;BME280;51386;53.082;8.816;2024-01-10T13:30:12;103204.69;;;3.50;40.05
64889;BME280;51386;53.082;8.816;2024-01-10T13:32:41;103204.59;;;3.33;40.09